Time;durP1;ratioP1;P1;durP2;ratioP2;P2;SDS_P1;SDS_P2;PMS_P1;PMS_P2;Temp;Humidity;BMP_temperature;BMP_pressure;BME280_temperature;BME280_humidity;BME280_pressure;Samples;Min_cycle;Max_cycle;Signal;HPM_P1;HPM_P2
2023/04/24 00:00:12;;;;;;;22.30;9.80;;;;;;;14.43;69.80;98219.61;108364;1303;22945;-56
2023/04/24 00:02:40;;;;;;;18.90;10.30;;;;;;;14.41;69.87;98215.73;108342;1303;23093;-51
2023/04/24 00:05:07;;;;;;;14.50;9.70;;;;;;;14.38;70.55;98215.09;108361;1303;23175;-53
2023/04/24 00:07:33;;;;;;;21.10;10.40;;;;;;;14.36;70.62;98211.80;108282;1303;80345;-56
2023/04/24 00:09:58;;;;;;;15.30;10.50;;;;;;;14.33;70.07;98209.18;108354;1303;22261;-54
2023/04/24 00:12:24;;;;;;;18.40;9.60;;;;;;;14.31;69.38;98209.74;108340;1303;22283;-55
2023/04/24 00:14:50;;;;;;;17.00;10.30;;;;;;;14.30;70.44;98208.58;108338;1303;22420;-53
2023/04/24 00:17:19;;;;;;;16.10;9.70;;;;;;;14.31;69.64;98205.54;108354;1303;22407;-58
2023/04/24 00:19:45;;;;;;;14.70;9.60;;;;;;;14.30;70.03;98203.48;108359;1303;22234;-55
2023/04/24 00:22:10;;;;;;;21.40;10.20;;;;;;;14.29;70.09;98202.91;108325;1303;22251;-53
2023/04/24 00:24:36;;;;;;;18.10;10.30;;;;;;;14.25;69.68;98199.21;108371;1303;22261;-57
2023/04/24 00:27:02;;;;;;;19.60;9.10;;;;;;;14.19;68.95;98190.85;108343;1303;22507;-54
2023/04/24 00:29:28;;;;;;;19.00;9.90;;;;;;;14.18;69.16;98187.77;108339;1303;23035;-52
2023/04/24 00:31:53;;;;;;;11.90;8.50;;;;;;;14.18;70.07;98183.49;108334;1303;23181;-49
2023/04/24 00:34:19;;;;;;;14.30;8.80;;;;;;;14.20;69.81;98187.95;108357;1303;23173;-57
2023/04/24 00:36:44;;;;;;;12.40;9.30;;;;;;;14.22;69.09;98183.36;108342;1303;22447;-55
2023/04/24 00:39:09;;;;;;;11.50;9.40;;;;;;;14.25;68.83;98185.99;108354;1303;23025;-54
2023/04/24 00:41:35;;;;;;;16.70;9.20;;;;;;;14.23;69.64;98183.13;108332;1303;22463;-54
2023/04/24 00:44:00;;;;;;;16.70;9.90;;;;;;;14.21;69.41;98183.34;108340;1303;23254;-52
2023/04/24 00:46:26;;;;;;;15.20;9.70;;;;;;;14.17;69.73;98177.70;108349;1303;23205;-50
2023/04/24 00:48:51;;;;;;;13.80;9.50;;;;;;;14.15;69.22;98179.76;108342;1303;23049;-53
2023/04/24 00:51:17;;;;;;;15.50;9.50;;;;;;;14.15;68.97;98176.44;108352;1303;22268;-54
2023/04/24 00:53:43;;;;;;;20.50;10.00;;;;;;;14.14;69.29;98175.64;108214;1303;23072;-50
2023/04/24 00:56:09;;;;;;;16.60;10.00;;;;;;;14.14;69.11;98174.55;108331;1303;22430;-56
2023/04/24 00:58:34;;;;;;;17.70;9.30;;;;;;;14.13;68.97;98173.58;108337;1303;22992;-54
2023/04/24 01:01:00;;;;;;;14.30;9.70;;;;;;;14.13;69.19;98174.31;108349;1303;22427;-54
2023/04/24 01:03:29;;;;;;;14.70;9.50;;;;;;;14.13;69.17;98172.72;108352;1303;22214;-54
2023/04/24 01:05:55;;;;;;;19.30;10.40;;;;;;;14.13;68.99;98168.98;108350;1303;22320;-52
2023/04/24 01:08:26;;;;;;;13.60;9.40;;;;;;;14.11;69.68;98168.28;108356;1303;22417;-51
2023/04/24 01:10:52;;;;;;;22.70;10.70;;;;;;;14.10;69.68;98164.68;108352;1303;23000;-56
2023/04/24 01:13:18;;;;;;;15.50;9.50;;;;;;;14.12;69.03;98164.52;108182;1303;22463;-50
2023/04/24 01:15:45;;;;;;;17.00;9.80;;;;;;;14.13;68.64;98166.17;108359;1303;22427;-55
2023/04/24 01:18:10;;;;;;;12.30;9.20;;;;;;;14.13;69.85;98166.33;108345;1303;22262;-51
2023/04/24 01:20:39;;;;;;;14.20;10.10;;;;;;;14.12;69.39;98165.05;108365;1303;22939;-57
2023/04/24 01:23:05;;;;;;;17.30;10.40;;;;;;;14.12;69.53;98161.73;108345;1303;22253;-53
2023/04/24 01:25:31;;;;;;;17.60;10.50;;;;;;;14.12;70.02;98159.80;108350;1303;22189;-53
2023/04/24 01:27:56;;;;;;;18.20;9.90;;;;;;;14.11;70.21;98156.70;108349;1303;22238;-48
2023/04/24 01:30:22;;;;;;;17.10;9.90;;;;;;;14.11;69.43;98155.94;108326;1303;22458;-55
2023/04/24 01:32:48;;;;;;;17.00;9.50;;;;;;;14.13;70.42;98155.84;108329;1303;22476;-54
2023/04/24 01:35:13;;;;;;;18.60;9.70;;;;;;;14.14;70.41;98152.73;108352;1303;22712;-54
2023/04/24 01:37:39;;;;;;;18.50;8.90;;;;;;;14.15;69.93;98147.67;108332;1303;22175;-51
2023/04/24 01:40:08;;;;;;;12.20;8.90;;;;;;;14.17;70.52;98143.25;108334;1303;22331;-52
2023/04/24 01:42:34;;;;;;;14.70;8.90;;;;;;;14.19;70.35;98145.17;108176;1303;22887;-51
2023/04/24 01:45:03;;;;;;;17.80;8.90;;;;;;;14.23;70.21;98140.55;108357;1303;22476;-51
2023/04/24 01:47:30;;;;;;;17.50;8.60;;;;;;;14.25;70.14;98137.86;108343;1303;23271;-57
2023/04/24 01:49:55;;;;;;;14.50;7.80;;;;;;;14.28;70.65;98137.02;108345;1303;22329;-51
2023/04/24 01:52:21;;;;;;;17.00;8.20;;;;;;;14.31;70.33;98136.23;108331;1303;22243;-52
2023/04/24 01:54:46;;;;;;;12.50;8.30;;;;;;;14.35;69.65;98130.44;108350;1303;22271;-53
2023/04/24 01:57:11;;;;;;;12.10;7.60;;;;;;;14.40;70.04;98132.25;108335;1303;22496;-52
2023/04/24 01:59:37;;;;;;;12.50;7.80;;;;;;;14.42;69.65;98129.11;108336;1303;22506;-52
2023/04/24 02:02:03;;;;;;;12.70;8.20;;;;;;;14.45;69.63;98129.34;108343;1303;22973;-57
2023/04/24 02:04:28;;;;;;;11.20;7.20;;;;;;;14.45;69.52;98126.84;108360;1303;23166;-57
2023/04/24 02:06:54;;;;;;;18.30;7.70;;;;;;;14.45;68.82;98127.01;108365;1303;22220;-57
2023/04/24 02:09:19;;;;;;;14.50;8.00;;;;;;;14.46;69.56;98126.63;108342;1303;23082;-55
2023/04/24 02:11:45;;;;;;;11.00;7.80;;;;;;;14.46;70.07;98126.13;108342;1303;22237;-54
2023/04/24 02:14:10;;;;;;;14.80;8.40;;;;;;;14.46;69.68;98125.89;108336;1303;22976;-55
2023/04/24 02:16:35;;;;;;;16.90;7.80;;;;;;;14.45;69.72;98123.16;108334;1303;22241;-53
2023/04/24 02:19:01;;;;;;;10.70;7.80;;;;;;;14.44;69.35;98122.69;108340;1303;22251;-54
2023/04/24 02:21:27;;;;;;;12.40;7.60;;;;;;;14.44;69.05;98120.27;108326;1303;22169;-51
2023/04/24 02:23:53;;;;;;;10.30;7.80;;;;;;;14.45;68.86;98119.66;108352;1303;22218;-53
2023/04/24 02:26:18;;;;;;;11.10;7.10;;;;;;;14.46;68.77;98116.88;108346;1303;22431;-55
2023/04/24 02:28:44;;;;;;;11.60;6.80;;;;;;;14.48;68.60;98114.27;108343;1303;22265;-56
2023/04/24 02:31:09;;;;;;;9.40;6.50;;;;;;;14.49;68.20;98110.66;108338;1303;22420;-52
2023/04/24 02:33:35;;;;;;;9.00;6.80;;;;;;;14.47;68.13;98112.73;108340;1303;22280;-56
2023/04/24 02:36:01;;;;;;;9.80;6.40;;;;;;;14.47;68.37;98112.20;108364;1289;23160;-54
2023/04/24 02:38:26;;;;;;;11.60;7.20;;;;;;;14.47;68.18;98108.86;108339;1303;22353;-52
2023/04/24 02:43:16;;;;;;;13.90;7.60;;;;;;;14.50;67.38;98105.40;106850;1305;545680;-53
2023/04/24 02:45:41;;;;;;;12.20;7.20;;;;;;;14.45;67.35;98103.92;107368;1290;22439;-54
2023/04/24 02:48:06;;;;;;;9.30;7.40;;;;;;;14.43;66.99;98102.02;107371;1313;22992;-51
2023/04/24 02:50:33;;;;;;;11.60;7.40;;;;;;;14.40;67.49;98096.46;107364;1313;22209;-56
2023/04/24 02:52:58;;;;;;;9.80;6.60;;;;;;;14.41;67.48;98101.00;107408;1313;22428;-58
2023/04/24 02:55:24;;;;;;;10.60;7.00;;;;;;;14.41;67.16;98096.58;107388;1313;23040;-58
2023/04/24 02:57:50;;;;;;;9.10;6.80;;;;;;;14.39;66.94;98094.63;107515;1310;147108;-54
2023/04/24 03:00:16;;;;;;;12.00;6.90;;;;;;;14.38;67.01;98093.98;107659;1310;22231;-53
2023/04/24 03:02:41;;;;;;;12.70;7.50;;;;;;;14.38;67.33;98091.89;107606;1310;22507;-54
2023/04/24 03:05:07;;;;;;;8.60;6.90;;;;;;;14.38;66.93;98092.06;107628;1310;22384;-52
2023/04/24 03:07:32;;;;;;;9.10;7.30;;;;;;;14.37;67.27;98092.30;107706;1310;22839;-55
2023/04/24 03:09:58;;;;;;;13.00;6.90;;;;;;;14.36;67.18;98092.23;107673;1310;22274;-54
2023/04/24 03:12:23;;;;;;;10.10;7.10;;;;;;;14.36;67.43;98095.23;107691;1310;22542;-54
2023/04/24 03:14:49;;;;;;;13.80;7.20;;;;;;;14.35;67.36;98095.98;107704;1310;23111;-56
2023/04/24 03:17:14;;;;;;;8.20;7.30;;;;;;;14.35;67.10;98097.04;107683;1309;22304;-52
2023/04/24 03:19:39;;;;;;;11.40;7.10;;;;;;;14.35;66.64;98098.31;107679;1310;22331;-56
2023/04/24 03:22:05;;;;;;;9.70;7.20;;;;;;;14.33;67.53;98099.95;107701;1310;22238;-54
2023/04/24 03:24:30;;;;;;;11.10;7.30;;;;;;;14.30;67.48;98102.83;107703;1310;22865;-56
2023/04/24 03:26:56;;;;;;;12.80;7.80;;;;;;;14.28;67.77;98102.68;107690;1310;22411;-55
2023/04/24 03:29:22;;;;;;;20.70;8.50;;;;;;;14.21;67.74;98101.28;107685;1310;22231;-54
2023/04/24 03:31:47;;;;;;;14.00;7.40;;;;;;;14.18;68.17;98100.87;107880;1308;22231;-57
2023/04/24 03:34:12;;;;;;;12.50;8.10;;;;;;;14.16;67.91;98100.69;107879;1308;23503;-56
2023/04/24 03:36:38;;;;;;;13.60;8.20;;;;;;;14.14;68.02;98101.77;108019;1306;23130;-51
2023/04/24 03:39:03;;;;;;;17.60;8.60;;;;;;;14.11;67.76;98103.24;108042;1306;22421;-54
2023/04/24 03:41:30;;;;;;;10.50;8.20;;;;;;;14.07;67.87;98100.26;108024;1306;22954;-57
2023/04/24 03:43:56;;;;;;;19.90;8.60;;;;;;;14.06;68.39;98096.36;108062;1306;22299;-56
2023/04/24 03:46:21;;;;;;;17.00;8.90;;;;;;;14.05;68.31;98096.83;108048;1306;22220;-57
2023/04/24 03:48:46;;;;;;;13.90;8.50;;;;;;;14.03;67.95;98094.27;108043;1306;22478;-55
2023/04/24 03:51:12;;;;;;;11.90;7.80;;;;;;;14.04;67.69;98097.41;108037;1306;22807;-54
2023/04/24 03:53:37;;;;;;;13.30;8.70;;;;;;;14.02;67.74;98098.27;108053;1306;22242;-50
2023/04/24 03:56:03;;;;;;;16.70;8.40;;;;;;;14.02;67.91;98103.20;108032;1306;23151;-54
2023/04/24 03:58:28;;;;;;;16.50;8.60;;;;;;;13.99;68.11;98104.11;108003;1307;22229;-54
2023/04/24 04:00:53;;;;;;;19.20;8.50;;;;;;;13.99;68.36;98105.03;108035;1306;22267;-51
2023/04/24 04:03:19;;;;;;;16.00;8.80;;;;;;;13.99;67.91;98106.45;108019;1306;22459;-54
2023/04/24 04:05:44;;;;;;;13.20;8.60;;;;;;;13.98;68.15;98106.55;108030;1306;22971;-55
2023/04/24 04:08:10;;;;;;;21.60;9.30;;;;;;;13.99;68.12;98108.80;108048;1306;23236;-54
2023/04/24 04:10:35;;;;;;;16.40;9.30;;;;;;;13.97;68.29;98110.63;108030;1306;22232;-52
2023/04/24 04:13:00;;;;;;;19.90;9.20;;;;;;;13.96;68.62;98110.22;108036;1306;23008;-54
2023/04/24 04:15:26;;;;;;;17.50;9.40;;;;;;;13.95;68.52;98112.30;108038;1306;22392;-54
2023/04/24 04:17:51;;;;;;;20.00;10.20;;;;;;;13.93;68.30;98109.98;108014;1306;22339;-54
2023/04/24 04:20:16;;;;;;;19.80;10.50;;;;;;;13.93;68.95;98111.20;108028;1306;22239;-56
2023/04/24 04:22:42;;;;;;;18.40;10.20;;;;;;;13.94;68.21;98109.73;108018;1306;22216;-51
2023/04/24 04:25:08;;;;;;;18.90;9.80;;;;;;;13.95;68.52;98111.60;108006;1306;22186;-52
2023/04/24 04:27:34;;;;;;;25.30;9.80;;;;;;;13.96;69.16;98113.05;108037;1306;22222;-54
2023/04/24 04:30:04;;;;;;;28.10;10.70;;;;;;;13.97;68.80;98115.09;108031;1306;22222;-56
2023/04/24 04:32:33;;;;;;;18.70;10.20;;;;;;;13.98;68.78;98116.54;108048;1306;23132;-53
2023/04/24 04:35:05;;;;;;;20.90;9.50;;;;;;;14.00;68.78;98117.58;108038;1306;22228;-56
2023/04/24 04:37:31;;;;;;;15.90;9.40;;;;;;;14.02;68.24;98113.44;108049;1306;22220;-53
2023/04/24 04:40:00;;;;;;;18.70;10.30;;;;;;;14.02;67.91;98113.55;108039;1306;22480;-54
2023/04/24 04:42:26;;;;;;;25.00;10.60;;;;;;;14.05;67.52;98114.20;108023;1306;22245;-54
2023/04/24 04:44:52;;;;;;;20.20;9.60;;;;;;;14.09;67.68;98115.77;108013;1306;22394;-55
2023/04/24 04:47:21;;;;;;;24.60;11.20;;;;;;;14.11;67.47;98114.17;108047;1306;22649;-52
2023/04/24 04:49:46;;;;;;;20.00;9.70;;;;;;;14.15;66.92;98111.91;108024;1306;22236;-56
2023/04/24 04:52:12;;;;;;;17.50;8.90;;;;;;;14.17;66.76;98111.92;108015;1306;22994;-53
2023/04/24 04:54:37;;;;;;;14.00;9.40;;;;;;;14.20;66.69;98110.52;108022;1306;22221;-58
2023/04/24 04:57:03;;;;;;;16.00;9.40;;;;;;;14.28;67.20;98110.80;108042;1306;22979;-55
2023/04/24 04:59:28;;;;;;;17.60;8.80;;;;;;;14.33;66.88;98111.04;108021;1306;22851;-56
2023/04/24 05:01:54;;;;;;;13.00;8.90;;;;;;;14.38;66.70;98109.48;108032;1306;22711;-56
2023/04/24 05:04:19;;;;;;;30.10;8.70;;;;;;;14.42;66.05;98106.85;108019;1306;22211;-53
2023/04/24 05:06:44;;;;;;;97.20;12.40;;;;;;;14.44;65.74;98108.09;107993;1306;24379;-50
2023/04/24 05:09:10;;;;;;;16.90;8.80;;;;;;;14.45;65.20;98108.17;108041;1306;23247;-53
2023/04/24 05:11:35;;;;;;;34.20;10.60;;;;;;;14.44;65.07;98107.60;108031;1306;22955;-54
2023/04/24 05:14:00;;;;;;;19.30;8.80;;;;;;;14.48;65.09;98108.30;108021;1307;22220;-54
2023/04/24 05:16:26;;;;;;;22.50;9.30;;;;;;;14.50;64.94;98104.70;108013;1306;22480;-55
2023/04/24 05:18:51;;;;;;;18.30;8.80;;;;;;;14.51;64.74;98103.04;108019;1306;22999;-53
2023/04/24 05:21:17;;;;;;;23.50;9.40;;;;;;;14.52;65.04;98106.27;108018;1306;22987;-56
2023/04/24 05:23:42;;;;;;;28.90;9.60;;;;;;;14.56;64.91;98103.87;108022;1306;22232;-56
2023/04/24 05:26:07;;;;;;;16.50;9.20;;;;;;;14.58;64.78;98110.34;108037;1306;24211;-55
2023/04/24 05:28:33;;;;;;;15.20;8.60;;;;;;;14.62;64.86;98110.39;108042;1306;22494;-54
2023/04/24 05:30:59;;;;;;;19.30;8.50;;;;;;;14.65;64.56;98110.31;108043;1306;22226;-55
2023/04/24 05:33:25;;;;;;;23.60;8.60;;;;;;;14.69;64.02;98111.39;108038;1306;22436;-55
2023/04/24 05:35:50;;;;;;;15.30;8.20;;;;;;;14.71;63.40;98111.02;108031;1306;22219;-54
2023/04/24 05:38:19;;;;;;;26.30;8.00;;;;;;;14.72;62.59;98109.98;108035;1306;22827;-53
2023/04/24 05:40:44;;;;;;;25.30;8.50;;;;;;;14.75;62.52;98111.30;108042;1306;22233;-55
2023/04/24 05:43:09;;;;;;;20.80;7.50;;;;;;;14.79;62.46;98111.47;108003;1306;23152;-57
2023/04/24 05:45:35;;;;;;;18.70;7.70;;;;;;;14.82;61.95;98110.02;108029;1306;22245;-55
2023/04/24 05:48:02;;;;;;;13.70;7.30;;;;;;;14.85;62.12;98111.48;108028;1306;23187;-50
2023/04/24 05:50:27;;;;;;;20.50;7.50;;;;;;;14.87;61.77;98111.98;108033;1306;23007;-52
2023/04/24 05:52:53;;;;;;;29.30;7.50;;;;;;;14.91;61.87;98114.38;108043;1306;22887;-55
2023/04/24 05:55:19;;;;;;;23.90;7.90;;;;;;;14.94;61.52;98111.84;108043;1306;22234;-56
2023/04/24 05:57:45;;;;;;;16.90;7.30;;;;;;;14.98;61.16;98115.40;108035;1307;22276;-51
2023/04/24 06:00:12;;;;;;;21.20;7.40;;;;;;;15.02;61.09;98111.50;108038;1306;22384;-50
2023/04/24 06:02:38;;;;;;;29.70;8.50;;;;;;;15.07;60.78;98111.74;108030;1306;22219;-57
2023/04/24 06:05:04;;;;;;;37.70;8.90;;;;;;;15.11;60.45;98109.09;108029;1307;22530;-52
2023/04/24 06:07:30;;;;;;;21.50;7.40;;;;;;;15.16;60.09;98102.23;108033;1306;22715;-56
2023/04/24 06:09:56;;;;;;;10.30;6.00;;;;;;;15.23;59.84;98102.88;108032;1306;22575;-53
2023/04/24 06:12:21;;;;;;;15.40;6.10;;;;;;;15.29;58.38;98104.76;108043;1306;22916;-57
2023/04/24 06:14:47;;;;;;;12.30;5.80;;;;;;;15.37;58.15;98102.44;108060;1307;22431;-49
2023/04/24 06:17:13;;;;;;;8.80;5.70;;;;;;;15.45;57.59;98100.61;108049;1306;22259;-54
2023/04/24 06:19:38;;;;;;;20.40;6.00;;;;;;;15.51;57.82;98101.05;108025;1306;23132;-51
2023/04/24 06:22:04;;;;;;;14.90;5.60;;;;;;;15.59;57.60;98098.27;108059;1307;22403;-56
2023/04/24 06:24:29;;;;;;;13.60;5.50;;;;;;;15.66;56.49;98098.65;108044;1306;22317;-55
2023/04/24 06:26:56;;;;;;;10.30;5.40;;;;;;;15.74;54.96;98090.10;108026;1306;22227;-55
2023/04/24 06:29:21;;;;;;;9.70;5.20;;;;;;;15.83;51.74;98089.79;108017;1306;23253;-54
2023/04/24 06:31:47;;;;;;;9.50;5.20;;;;;;;15.96;50.51;98089.23;108041;1307;23136;-53
2023/04/24 06:34:12;;;;;;;13.50;5.50;;;;;;;16.07;49.84;98085.52;108029;1306;23000;-53
2023/04/24 06:36:37;;;;;;;14.90;5.10;;;;;;;16.18;50.14;98086.40;108054;1307;22214;-52
2023/04/24 06:39:03;;;;;;;13.00;4.40;;;;;;;16.29;50.62;98079.81;108031;1306;23111;-56
2023/04/24 06:41:29;;;;;;;10.90;4.50;;;;;;;16.41;50.50;98081.21;108043;1306;22253;-58
2023/04/24 06:43:55;;;;;;;14.20;4.50;;;;;;;16.51;48.38;98079.48;108048;1306;22301;-56
2023/04/24 06:46:23;;;;;;;11.10;4.50;;;;;;;16.63;47.49;98077.04;108052;1306;22215;-55
2023/04/24 06:48:49;;;;;;;10.30;4.30;;;;;;;16.75;48.63;98075.27;108046;1306;23176;-56
2023/04/24 06:51:15;;;;;;;12.90;4.60;;;;;;;16.87;46.73;98074.66;108053;1306;22220;-57
2023/04/24 06:53:40;;;;;;;13.30;4.50;;;;;;;16.99;46.96;98072.37;108031;1306;22109;-52
2023/04/24 06:56:05;;;;;;;8.90;4.20;;;;;;;17.11;48.29;98068.85;108021;1306;22645;-53
2023/04/24 06:58:31;;;;;;;9.50;3.80;;;;;;;17.23;47.51;98068.70;108035;1307;22422;-55
2023/04/24 07:00:56;;;;;;;10.70;4.10;;;;;;;17.32;44.90;98069.09;108027;1306;22411;-53
2023/04/24 07:03:21;;;;;;;8.00;4.10;;;;;;;17.40;45.22;98069.27;108040;1306;22923;-56
2023/04/24 07:05:49;;;;;;;8.10;3.70;;;;;;;17.48;44.12;98067.27;108013;1306;22245;-54
2023/04/24 07:08:16;;;;;;;8.20;4.00;;;;;;;17.53;42.52;98064.40;108027;1306;22229;-54
2023/04/24 07:10:42;;;;;;;6.90;3.90;;;;;;;17.60;42.69;98064.17;108027;1306;22364;-53
2023/04/24 07:13:08;;;;;;;10.10;4.00;;;;;;;17.68;43.16;98066.02;108050;1306;22234;-53
2023/04/24 07:15:33;;;;;;;9.40;4.00;;;;;;;17.76;43.12;98070.20;108041;1306;22446;-53
2023/04/24 07:17:59;;;;;;;7.70;4.10;;;;;;;17.83;43.69;98068.38;108055;1306;22298;-53
2023/04/24 07:20:25;;;;;;;7.90;4.00;;;;;;;17.89;43.53;98069.55;108044;1306;22198;-49
2023/04/24 07:22:51;;;;;;;9.40;3.60;;;;;;;17.93;41.55;98070.96;108035;1306;22416;-53
2023/04/24 07:25:17;;;;;;;15.50;3.60;;;;;;;17.95;41.55;98070.53;108056;1306;22158;-52
2023/04/24 07:27:42;;;;;;;8.90;3.80;;;;;;;17.98;42.63;98070.91;108044;1306;22366;-51
2023/04/24 07:30:08;;;;;;;13.40;3.90;;;;;;;18.00;42.88;98068.20;108017;1306;22239;-54
2023/04/24 07:32:34;;;;;;;4.00;3.40;;;;;;;18.01;42.22;98067.04;108028;1306;23201;-57
2023/04/24 07:35:00;;;;;;;11.80;3.80;;;;;;;18.01;41.44;98066.30;108034;1306;22519;-56
2023/04/24 07:37:25;;;;;;;9.60;4.40;;;;;;;18.03;41.42;98062.92;108040;1306;22413;-57
2023/04/24 07:39:51;;;;;;;4.30;3.00;;;;;;;18.06;41.23;98069.08;108036;1306;22232;-57
2023/04/24 07:42:16;;;;;;;51.80;6.50;;;;;;;18.06;40.53;98064.98;108013;1306;22299;-54
2023/04/24 07:44:41;;;;;;;7.50;4.10;;;;;;;18.07;40.78;98063.63;108017;1306;22232;-52
2023/04/24 07:47:07;;;;;;;13.10;4.00;;;;;;;18.08;40.49;98063.87;108040;1306;22494;-54
2023/04/24 07:49:34;;;;;;;7.00;3.60;;;;;;;18.10;41.22;98065.77;108010;1306;22472;-58
2023/04/24 07:52:01;;;;;;;4.70;3.40;;;;;;;18.11;40.35;98060.67;108032;1306;22229;-51
2023/04/24 07:54:27;;;;;;;6.80;3.80;;;;;;;18.14;40.36;98060.94;108035;1306;22200;-54
2023/04/24 07:56:52;;;;;;;10.00;3.90;;;;;;;18.19;41.05;98060.35;108041;1306;22262;-56
2023/04/24 07:59:17;;;;;;;9.20;3.70;;;;;;;18.18;39.60;98059.73;108042;1306;22213;-54
2023/04/24 08:01:42;;;;;;;8.60;4.10;;;;;;;18.17;39.00;98060.19;108031;1306;22835;-55
2023/04/24 08:04:08;;;;;;;8.30;4.40;;;;;;;18.24;40.14;98060.70;108033;1306;22455;-53
2023/04/24 08:06:33;;;;;;;5.70;3.80;;;;;;;18.28;40.51;98061.54;108035;1306;22968;-54
2023/04/24 08:09:00;;;;;;;11.30;4.00;;;;;;;18.34;40.51;98056.27;108030;1306;22249;-52
2023/04/24 08:11:25;;;;;;;6.10;3.60;;;;;;;18.41;39.69;98058.40;108048;1306;22244;-55
2023/04/24 08:13:51;;;;;;;5.80;3.30;;;;;;;18.49;38.55;98055.91;108042;1306;23153;-44
2023/04/24 08:16:16;;;;;;;6.20;3.30;;;;;;;18.60;39.61;98053.71;108028;1306;22411;-41
2023/04/24 08:18:42;;;;;;;4.90;3.30;;;;;;;18.68;39.59;98054.61;108035;1306;22423;-43
2023/04/24 08:21:07;;;;;;;6.00;3.30;;;;;;;18.77;39.67;98055.54;107901;1306;22406;-43
2023/04/24 08:23:32;;;;;;;8.80;3.20;;;;;;;18.86;39.66;98055.67;107894;1306;22245;-42
2023/04/24 08:25:58;;;;;;;3.60;3.00;;;;;;;18.95;39.40;98047.44;107844;1301;24216;-40
2023/04/24 08:28:23;;;;;;;6.50;3.70;;;;;;;19.03;39.10;98049.02;107952;1306;24386;-43
2023/04/24 08:30:54;;;;;;;5.70;3.40;;;;;;;19.14;39.61;98043.17;107847;1308;22241;-44
2023/04/24 08:33:19;;;;;;;5.90;3.60;;;;;;;19.23;38.60;98041.68;107847;1302;22934;-42
2023/04/24 08:35:45;;;;;;;18.20;3.70;;;;;;;19.31;38.28;98041.46;107838;1308;22399;-45
2023/04/24 08:38:10;;;;;;;9.40;3.40;;;;;;;19.42;38.14;98037.42;107851;1308;23244;-41
2023/04/24 08:40:36;;;;;;;7.30;3.60;;;;;;;19.53;38.34;98031.80;107813;1308;22275;-44
2023/04/24 08:43:03;;;;;;;7.80;3.60;;;;;;;19.64;38.45;98028.20;107851;1301;22232;-43
2023/04/24 08:45:29;;;;;;;12.20;3.50;;;;;;;19.78;38.31;98026.30;107837;1308;22225;-42
2023/04/24 08:47:55;;;;;;;13.50;3.40;;;;;;;19.88;37.29;98028.16;107868;1307;22420;-43
2023/04/24 08:50:22;;;;;;;10.80;3.40;;;;;;;20.00;34.91;98028.09;107874;1308;22929;-41
2023/04/24 08:52:49;;;;;;;10.50;3.80;;;;;;;20.11;33.90;98023.25;107859;1307;22247;-39
2023/04/24 08:55:17;;;;;;;7.40;3.50;;;;;;;20.24;35.45;98023.91;107837;1308;22176;-43
2023/04/24 08:57:45;;;;;;;7.00;3.10;;;;;;;20.44;35.71;98026.80;107869;1308;22551;-42
2023/04/24 09:00:11;;;;;;;7.50;3.40;;;;;;;20.62;35.83;98029.27;107854;1308;22387;-45
2023/04/24 09:02:41;;;;;;;10.60;3.50;;;;;;;20.78;34.99;98032.63;107837;1299;22775;-42
2023/04/24 09:05:07;;;;;;;6.40;3.10;;;;;;;20.89;34.21;98028.80;107871;1307;22233;-40
2023/04/24 09:07:35;;;;;;;6.30;2.90;;;;;;;21.02;34.39;98028.45;107895;1307;22882;-40
2023/04/24 09:10:01;;;;;;;4.60;3.20;;;;;;;21.19;32.41;98030.73;107867;1307;22267;-43
2023/04/24 09:12:27;;;;;;;5.80;3.20;;;;;;;21.36;31.73;98035.63;107837;1308;22266;-43
2023/04/24 09:14:52;;;;;;;5.00;3.40;;;;;;;21.66;32.70;98032.06;107831;1307;22213;-41
2023/04/24 09:17:18;;;;;;;8.30;3.20;;;;;;;21.95;30.84;98031.13;107798;1308;22246;-44
2023/04/24 09:19:43;;;;;;;9.30;3.50;;;;;;;22.34;30.31;98029.46;107957;1302;22268;-41
2023/04/24 09:22:09;;;;;;;12.10;7.50;;;;;;;22.79;30.25;98034.69;107993;1306;23023;-44
2023/04/24 09:24:35;;;;;;;12.20;4.90;;;;;;;23.24;28.31;98026.23;107947;1304;22892;-42
2023/04/24 09:27:03;;;;;;;4.50;3.10;;;;;;;23.82;27.86;98028.20;107867;1308;22262;-41
2023/04/24 09:29:29;;;;;;;5.70;3.30;;;;;;;24.41;28.42;98026.92;107983;1306;22300;-40
2023/04/24 09:31:55;;;;;;;4.70;3.20;;;;;;;24.93;27.71;98027.59;108003;1306;22448;-42
2023/04/24 09:34:23;;;;;;;8.10;3.20;;;;;;;25.29;26.95;98026.61;108028;1306;22674;-42
2023/04/24 09:36:49;;;;;;;7.30;3.10;;;;;;;25.72;25.68;98025.04;108016;1306;22262;-42
2023/04/24 09:39:16;;;;;;;5.80;3.20;;;;;;;26.09;26.12;98026.48;108018;1307;23141;-41
2023/04/24 09:41:48;;;;;;;4.00;2.90;;;;;;;26.39;25.08;98028.86;108020;1306;22218;-48
2023/04/24 09:44:24;;;;;;;4.30;3.00;;;;;;;26.81;24.28;98030.70;108022;1300;22868;-46
2023/04/24 09:46:55;;;;;;;11.30;3.70;;;;;;;26.86;23.62;98028.00;108013;1307;22195;-45
2023/04/24 09:49:23;;;;;;;4.00;3.60;;;;;;;26.59;23.68;98026.29;108046;1306;22216;-47
2023/04/24 09:51:49;;;;;;;5.60;3.00;;;;;;;26.46;24.34;98019.61;108014;1306;22254;-40
2023/04/24 09:54:20;;;;;;;7.00;3.00;;;;;;;26.17;24.38;98020.64;107994;1306;22456;-44
2023/04/24 09:56:47;;;;;;;5.60;3.80;;;;;;;25.95;23.99;98015.48;108009;1307;22278;-51
2023/04/24 09:59:13;;;;;;;;;;;;;;;26.11;23.95;98009.10;108024;1306;22412;-48
2023/04/24 10:01:42;;;;;;;5.00;3.50;;;;;;;26.28;25.23;98012.77;108024;1307;22233;-45
2023/04/24 10:04:15;;;;;;;8.70;3.30;;;;;;;26.02;24.88;98011.55;108015;1306;22203;-48
2023/04/24 10:06:42;;;;;;;5.00;3.20;;;;;;;25.89;24.90;98001.65;107967;1306;22913;-45
2023/04/24 10:09:10;;;;;;;7.90;3.40;;;;;;;26.11;24.66;97999.77;107996;1306;22403;-44
2023/04/24 10:11:36;;;;;;;8.40;3.50;;;;;;;26.40;24.50;98000.03;108030;1306;22212;-44
2023/04/24 10:14:01;;;;;;;4.70;3.50;;;;;;;26.66;23.98;98004.91;108015;1305;22159;-47
2023/04/24 10:16:28;;;;;;;5.40;3.60;;;;;;;26.99;22.84;98000.33;107985;1306;22386;-44
2023/04/24 10:18:54;;;;;;;4.60;3.00;;;;;;;27.42;23.96;97996.87;108019;1307;22283;-51
2023/04/24 10:21:19;;;;;;;5.50;3.20;;;;;;;27.81;23.23;97994.00;108017;1306;22400;-43
2023/04/24 10:23:46;;;;;;;6.20;3.50;;;;;;;27.72;22.88;97996.35;107991;1306;23164;-52
2023/04/24 10:26:17;;;;;;;17.10;3.40;;;;;;;27.53;22.93;97997.38;107978;1307;22262;-52
2023/04/24 10:28:47;;;;;;;9.60;3.80;;;;;;;27.62;21.80;97992.70;107993;1306;22389;-43
2023/04/24 10:31:13;;;;;;;7.20;3.70;;;;;;;27.97;21.64;97992.94;108013;1306;22419;-49
2023/04/24 10:33:41;;;;;;;;;;;;;;;28.46;21.78;97987.16;107915;1300;22605;-50
2023/04/24 10:36:09;;;;;;;4.60;3.40;;;;;;;28.91;21.25;97984.30;107892;1307;22377;-51
2023/04/24 10:38:38;;;;;;;7.20;3.80;;;;;;;29.27;20.41;97982.79;107896;1307;22253;-47
2023/04/24 10:41:10;;;;;;;6.90;3.20;;;;;;;29.48;19.86;97982.20;107901;1302;22255;-54
2023/04/24 10:43:36;;;;;;;20.10;4.50;;;;;;;29.53;20.08;97983.92;107953;1301;22412;-50
2023/04/24 10:46:03;;;;;;;13.40;3.80;;;;;;;29.30;20.46;97982.90;107948;1299;22262;-45
2023/04/24 10:48:29;;;;;;;5.90;3.00;;;;;;;29.14;20.18;97985.80;107901;1307;22360;-46
2023/04/24 10:50:55;;;;;;;4.00;3.10;;;;;;;29.04;19.77;97982.79;107965;1299;23089;-47
2023/04/24 10:53:23;;;;;;;3.60;3.20;;;;;;;29.35;19.93;97977.26;107952;1306;22363;-51
2023/04/24 10:56:13;;;;;;;7.80;3.30;;;;;;;29.67;19.65;97976.48;107925;1306;22304;-45
2023/04/24 10:58:49;;;;;;;5.60;3.10;;;;;;;29.93;19.07;97971.52;107943;1302;22501;-47
2023/04/24 11:01:32;;;;;;;10.20;3.30;;;;;;;29.54;19.16;97968.93;107957;1301;22369;-48
2023/04/24 11:04:03;;;;;;;5.30;3.70;;;;;;;28.77;20.25;97963.66;107947;1305;23138;-45
2023/04/24 11:06:46;;;;;;;10.50;3.40;;;;;;;28.11;20.88;97967.32;107953;1299;22245;-56
2023/04/24 11:09:16;;;;;;;10.30;4.10;;;;;;;27.47;21.63;97961.67;107897;1306;23143;-43
2023/04/24 11:11:46;;;;;;;9.70;3.80;;;;;;;26.94;22.01;97959.66;107943;1306;22364;-44
2023/04/24 11:14:14;;;;;;;7.30;4.00;;;;;;;26.76;22.72;97959.52;107955;1301;22364;-44
2023/04/24 11:16:44;;;;;;;8.80;4.50;;;;;;;27.20;22.21;97956.08;107950;1306;22253;-41